sensor_id;sensor_type;location;lat;lon;timestamp;temperature;humidity
24260;DHT22;12384;48.112;18.418;2023-04-12T00:00:07;4.80;99.90
24260;DHT22;12384;48.112;18.418;2023-04-12T00:02:38;4.70;99.90
24260;DHT22;12384;48.112;18.418;2023-04-12T00:05:08;4.70;99.90
24260;DHT22;12384;48.112;18.418;2023-04-12T00:07:38;4.60;99.90
24260;DHT22;12384;48.112;18.418;2023-04-12T00:10:10;4.60;99.90
24260;DHT22;12384;48.112;18.418;2023-04-12T00:12:38;4.50;99.90
24260;DHT22;12384;48.112;18.418;2023-04-12T00:15:08;4.50;99.90
24260;DHT22;12384;48.112;18.418;2023-04-12T00:17:37;4.50;99.90
24260;DHT22;12384;48.112;18.418;2023-04-12T00:20:06;4.50;99.90
24260;DHT22;12384;48.112;18.418;2023-04-12T00:22:39;4.40;99.90
24260;DHT22;12384;48.112;18.418;2023-04-12T00:25:10;4.40;99.90
24260;DHT22;12384;48.112;18.418;2023-04-12T00:27:38;4.40;99.90
24260;DHT22;12384;48.112;18.418;2023-04-12T00:30:07;4.30;99.90
24260;DHT22;12384;48.112;18.418;2023-04-12T00:32:36;4.40;99.90
24260;DHT22;12384;48.112;18.418;2023-04-12T00:35:05;4.30;99.90
24260;DHT22;12384;48.112;18.418;2023-04-12T00:37:34;4.30;99.90
24260;DHT22;12384;48.112;18.418;2023-04-12T00:40:05;4.40;99.90
24260;DHT22;12384;48.112;18.418;2023-04-12T00:42:37;4.40;99.90
24260;DHT22;12384;48.112;18.418;2023-04-12T00:45:06;4.40;99.90
24260;DHT22;12384;48.112;18.418;2023-04-12T00:47:36;4.40;99.90
24260;DHT22;12384;48.112;18.418;2023-04-12T00:50:05;4.40;99.90
24260;DHT22;12384;48.112;18.418;2023-04-12T00:52:35;4.40;99.90
24260;DHT22;12384;48.112;18.418;2023-04-12T00:55:06;4.40;99.90
24260;DHT22;12384;48.112;18.418;2023-04-12T00:57:38;4.40;99.90
24260;DHT22;12384;48.112;18.418;2023-04-12T01:00:09;4.30;99.90
24260;DHT22;12384;48.112;18.418;2023-04-12T01:02:40;4.40;99.90
24260;DHT22;12384;48.112;18.418;2023-04-12T01:05:15;4.40;99.90
24260;DHT22;12384;48.112;18.418;2023-04-12T01:08:01;4.40;99.90
24260;DHT22;12384;48.112;18.418;2023-04-12T01:10:40;4.40;99.90
24260;DHT22;12384;48.112;18.418;2023-04-12T01:13:19;4.40;99.90
24260;DHT22;12384;48.112;18.418;2023-04-12T01:15:53;4.40;99.90
24260;DHT22;12384;48.112;18.418;2023-04-12T01:18:25;4.30;99.90
24260;DHT22;12384;48.112;18.418;2023-04-12T01:20:59;4.30;99.90
24260;DHT22;12384;48.112;18.418;2023-04-12T01:26:40;4.30;99.90
24260;DHT22;12384;48.112;18.418;2023-04-12T01:29:12;4.30;99.90
24260;DHT22;12384;48.112;18.418;2023-04-12T01:31:50;4.20;99.90
24260;DHT22;12384;48.112;18.418;2023-04-12T01:34:22;4.20;99.90
24260;DHT22;12384;48.112;18.418;2023-04-12T01:36:53;4.20;99.90
24260;DHT22;12384;48.112;18.418;2023-04-12T01:39:22;4.20;99.90
24260;DHT22;12384;48.112;18.418;2023-04-12T01:41:51;4.20;99.90
24260;DHT22;12384;48.112;18.418;2023-04-12T01:44:20;4.10;99.90
24260;DHT22;12384;48.112;18.418;2023-04-12T01:46:49;4.10;99.90
24260;DHT22;12384;48.112;18.418;2023-04-12T01:49:20;4.10;99.90
24260;DHT22;12384;48.112;18.418;2023-04-12T01:51:57;4.00;99.90
24260;DHT22;12384;48.112;18.418;2023-04-12T01:54:28;4.00;99.90
24260;DHT22;12384;48.112;18.418;2023-04-12T01:56:59;4.00;99.90
24260;DHT22;12384;48.112;18.418;2023-04-12T01:59:35;4.00;99.90
24260;DHT22;12384;48.112;18.418;2023-04-12T02:02:06;4.00;99.90
24260;DHT22;12384;48.112;18.418;2023-04-12T02:04:34;4.00;99.90
24260;DHT22;12384;48.112;18.418;2023-04-12T02:07:04;3.90;99.90
24260;DHT22;12384;48.112;18.418;2023-04-12T02:09:36;3.90;99.90
24260;DHT22;12384;48.112;18.418;2023-04-12T02:12:06;3.90;99.90
24260;DHT22;12384;48.112;18.418;2023-04-12T02:14:36;3.90;99.90
24260;DHT22;12384;48.112;18.418;2023-04-12T02:17:05;3.80;99.90
24260;DHT22;12384;48.112;18.418;2023-04-12T02:19:36;3.80;99.90
24260;DHT22;12384;48.112;18.418;2023-04-12T02:22:04;3.80;99.90
24260;DHT22;12384;48.112;18.418;2023-04-12T02:24:34;3.70;99.90
24260;DHT22;12384;48.112;18.418;2023-04-12T02:27:03;3.70;99.90
24260;DHT22;12384;48.112;18.418;2023-04-12T02:29:33;3.60;99.90
24260;DHT22;12384;48.112;18.418;2023-04-12T02:32:03;3.60;99.90
24260;DHT22;12384;48.112;18.418;2023-04-12T02:34:32;3.60;99.90
24260;DHT22;12384;48.112;18.418;2023-04-12T02:37:25;3.50;99.90
24260;DHT22;12384;48.112;18.418;2023-04-12T02:39:54;3.50;99.90
24260;DHT22;12384;48.112;18.418;2023-04-12T02:42:24;3.40;99.90
24260;DHT22;12384;48.112;18.418;2023-04-12T02:44:53;3.40;99.90
24260;DHT22;12384;48.112;18.418;2023-04-12T02:47:22;3.30;99.90
24260;DHT22;12384;48.112;18.418;2023-04-12T02:49:56;3.20;99.90
24260;DHT22;12384;48.112;18.418;2023-04-12T02:52:25;3.20;99.90
24260;DHT22;12384;48.112;18.418;2023-04-12T02:55:04;3.10;99.90
24260;DHT22;12384;48.112;18.418;2023-04-12T02:57:33;3.10;99.90
24260;DHT22;12384;48.112;18.418;2023-04-12T03:00:05;3.10;99.90
24260;DHT22;12384;48.112;18.418;2023-04-12T03:02:43;3.10;99.90
24260;DHT22;12384;48.112;18.418;2023-04-12T03:05:19;3.10;99.90
24260;DHT22;12384;48.112;18.418;2023-04-12T03:07:48;3.10;99.90
24260;DHT22;12384;48.112;18.418;2023-04-12T03:10:21;3.10;99.90
24260;DHT22;12384;48.112;18.418;2023-04-12T03:13:00;3.10;99.90
24260;DHT22;12384;48.112;18.418;2023-04-12T03:15:34;3.10;99.90
24260;DHT22;12384;48.112;18.418;2023-04-12T03:18:04;3.10;99.90
24260;DHT22;12384;48.112;18.418;2023-04-12T03:20:43;3.20;99.90
24260;DHT22;12384;48.112;18.418;2023-04-12T03:23:15;3.10;99.90
24260;DHT22;12384;48.112;18.418;2023-04-12T03:25:47;3.10;99.90
24260;DHT22;12384;48.112;18.418;2023-04-12T03:28:34;3.10;99.90
24260;DHT22;12384;48.112;18.418;2023-04-12T03:31:05;3.10;99.90
24260;DHT22;12384;48.112;18.418;2023-04-12T03:33:40;3.10;99.90
24260;DHT22;12384;48.112;18.418;2023-04-12T03:36:18;3.00;99.90
24260;DHT22;12384;48.112;18.418;2023-04-12T03:38:53;3.00;99.90
24260;DHT22;12384;48.112;18.418;2023-04-12T03:41:22;2.90;99.90
24260;DHT22;12384;48.112;18.418;2023-04-12T03:43:50;2.90;99.90
24260;DHT22;12384;48.112;18.418;2023-04-12T03:46:20;2.90;99.90
24260;DHT22;12384;48.112;18.418;2023-04-12T03:48:56;2.80;99.90
24260;DHT22;12384;48.112;18.418;2023-04-12T03:51:25;2.80;99.90
24260;DHT22;12384;48.112;18.418;2023-04-12T03:54:05;2.80;99.90
24260;DHT22;12384;48.112;18.418;2023-04-12T03:56:51;2.70;99.90
24260;DHT22;12384;48.112;18.418;2023-04-12T03:59:26;2.70;99.90
24260;DHT22;12384;48.112;18.418;2023-04-12T04:01:55;2.60;99.90
24260;DHT22;12384;48.112;18.418;2023-04-12T04:04:27;2.60;99.90
24260;DHT22;12384;48.112;18.418;2023-04-12T04:07:01;2.60;99.90
24260;DHT22;12384;48.112;18.418;2023-04-12T04:09:39;2.60;99.90
24260;DHT22;12384;48.112;18.418;2023-04-12T04:12:10;2.50;99.90
24260;DHT22;12384;48.112;18.418;2023-04-12T04:14:43;2.50;99.90
24260;DHT22;12384;48.112;18.418;2023-04-12T04:17:20;2.50;99.90
24260;DHT22;12384;48.112;18.418;2023-04-12T04:19:50;2.50;99.90
24260;DHT22;12384;48.112;18.418;2023-04-12T04:22:19;2.50;99.90
24260;DHT22;12384;48.112;18.418;2023-04-12T04:24:51;2.60;99.90
24260;DHT22;12384;48.112;18.418;2023-04-12T04:27:19;2.70;99.90
24260;DHT22;12384;48.112;18.418;2023-04-12T04:29:51;2.80;99.90
24260;DHT22;12384;48.112;18.418;2023-04-12T04:32:20;2.90;99.90
24260;DHT22;12384;48.112;18.418;2023-04-12T04:34:56;3.10;99.90
24260;DHT22;12384;48.112;18.418;2023-04-12T04:37:34;3.30;99.90
24260;DHT22;12384;48.112;18.418;2023-04-12T04:40:05;3.50;99.90
24260;DHT22;12384;48.112;18.418;2023-04-12T04:42:37;3.90;99.90
24260;DHT22;12384;48.112;18.418;2023-04-12T04:45:07;4.20;99.90
24260;DHT22;12384;48.112;18.418;2023-04-12T04:47:43;4.60;99.90
24260;DHT22;12384;48.112;18.418;2023-04-12T04:50:13;5.10;99.90
24260;DHT22;12384;48.112;18.418;2023-04-12T04:52:42;5.60;99.90
24260;DHT22;12384;48.112;18.418;2023-04-12T04:55:12;6.10;99.90
24260;DHT22;12384;48.112;18.418;2023-04-12T04:57:44;6.50;99.90
24260;DHT22;12384;48.112;18.418;2023-04-12T05:00:14;7.10;99.90
24260;DHT22;12384;48.112;18.418;2023-04-12T05:02:47;7.60;99.90
24260;DHT22;12384;48.112;18.418;2023-04-12T05:05:24;8.10;99.90
24260;DHT22;12384;48.112;18.418;2023-04-12T05:08:02;8.60;99.90
24260;DHT22;12384;48.112;18.418;2023-04-12T05:10:33;9.10;99.90
24260;DHT22;12384;48.112;18.418;2023-04-12T05:13:02;9.60;99.90
24260;DHT22;12384;48.112;18.418;2023-04-12T05:15:31;10.00;99.90
24260;DHT22;12384;48.112;18.418;2023-04-12T05:17:59;10.40;99.90
24260;DHT22;12384;48.112;18.418;2023-04-12T05:20:30;10.80;99.10
24260;DHT22;12384;48.112;18.418;2023-04-12T05:22:59;11.20;97.40
24260;DHT22;12384;48.112;18.418;2023-04-12T05:25:28;11.50;95.70
24260;DHT22;12384;48.112;18.418;2023-04-12T05:28:04;11.90;93.30
24260;DHT22;12384;48.112;18.418;2023-04-12T05:30:37;12.20;90.90
24260;DHT22;12384;48.112;18.418;2023-04-12T05:33:08;12.50;86.80
24260;DHT22;12384;48.112;18.418;2023-04-12T05:35:43;12.70;81.80
24260;DHT22;12384;48.112;18.418;2023-04-12T05:38:12;13.00;77.10
24260;DHT22;12384;48.112;18.418;2023-04-12T05:40:42;13.10;72.20
24260;DHT22;12384;48.112;18.418;2023-04-12T05:43:13;13.20;68.30
24260;DHT22;12384;48.112;18.418;2023-04-12T05:45:42;13.40;66.30
24260;DHT22;12384;48.112;18.418;2023-04-12T05:48:10;13.50;64.40
24260;DHT22;12384;48.112;18.418;2023-04-12T05:50:40;13.70;63.10
24260;DHT22;12384;48.112;18.418;2023-04-12T05:53:11;13.80;61.90
24260;DHT22;12384;48.112;18.418;2023-04-12T05:55:40;14.00;61.00
24260;DHT22;12384;48.112;18.418;2023-04-12T05:58:08;14.20;60.10
24260;DHT22;12384;48.112;18.418;2023-04-12T06:00:38;14.40;59.60
24260;DHT22;12384;48.112;18.418;2023-04-12T06:03:08;14.70;58.90
24260;DHT22;12384;48.112;18.418;2023-04-12T06:05:38;14.90;58.00
24260;DHT22;12384;48.112;18.418;2023-04-12T06:08:07;15.10;57.20
24260;DHT22;12384;48.112;18.418;2023-04-12T06:10:37;15.30;56.30
24260;DHT22;12384;48.112;18.418;2023-04-12T06:13:06;15.50;55.70
24260;DHT22;12384;48.112;18.418;2023-04-12T06:15:40;15.70;55.40
24260;DHT22;12384;48.112;18.418;2023-04-12T06:18:09;16.00;55.00
24260;DHT22;12384;48.112;18.418;2023-04-12T06:20:39;16.30;54.40
24260;DHT22;12384;48.112;18.418;2023-04-12T06:23:07;16.50;53.90
24260;DHT22;12384;48.112;18.418;2023-04-12T06:25:37;16.80;53.10
24260;DHT22;12384;48.112;18.418;2023-04-12T06:28:06;17.00;51.90
24260;DHT22;12384;48.112;18.418;2023-04-12T06:30:41;17.20;51.50
24260;DHT22;12384;48.112;18.418;2023-04-12T06:33:10;17.40;51.10
24260;DHT22;12384;48.112;18.418;2023-04-12T06:35:39;17.60;51.00
24260;DHT22;12384;48.112;18.418;2023-04-12T06:38:08;17.90;50.70
24260;DHT22;12384;48.112;18.418;2023-04-12T06:40:37;18.20;50.40
24260;DHT22;12384;48.112;18.418;2023-04-12T06:43:06;18.50;49.90
24260;DHT22;12384;48.112;18.418;2023-04-12T06:45:34;18.80;49.60
24260;DHT22;12384;48.112;18.418;2023-04-12T06:48:03;19.10;49.10
24260;DHT22;12384;48.112;18.418;2023-04-12T06:50:31;19.40;48.50
24260;DHT22;12384;48.112;18.418;2023-04-12T06:53:00;19.70;48.20
24260;DHT22;12384;48.112;18.418;2023-04-12T06:55:29;20.00;47.80
24260;DHT22;12384;48.112;18.418;2023-04-12T06:57:59;20.30;47.30
24260;DHT22;12384;48.112;18.418;2023-04-12T07:00:27;20.60;46.50
24260;DHT22;12384;48.112;18.418;2023-04-12T07:02:56;20.90;45.60
24260;DHT22;12384;48.112;18.418;2023-04-12T07:05:25;21.10;45.40
24260;DHT22;12384;48.112;18.418;2023-04-12T07:07:53;21.20;44.40
24260;DHT22;12384;48.112;18.418;2023-04-12T07:10:22;21.50;43.90
24260;DHT22;12384;48.112;18.418;2023-04-12T07:12:50;21.60;43.00
24260;DHT22;12384;48.112;18.418;2023-04-12T07:15:20;21.70;43.10
24260;DHT22;12384;48.112;18.418;2023-04-12T07:17:48;21.90;43.00
24260;DHT22;12384;48.112;18.418;2023-04-12T07:20:18;22.10;41.90
24260;DHT22;12384;48.112;18.418;2023-04-12T07:22:46;22.20;41.10
24260;DHT22;12384;48.112;18.418;2023-04-12T07:25:14;22.40;40.90
24260;DHT22;12384;48.112;18.418;2023-04-12T07:27:43;22.50;40.30
24260;DHT22;12384;48.112;18.418;2023-04-12T07:30:12;22.60;39.60
24260;DHT22;12384;48.112;18.418;2023-04-12T07:32:42;22.70;39.50
24260;DHT22;12384;48.112;18.418;2023-04-12T07:35:10;22.80;39.60
24260;DHT22;12384;48.112;18.418;2023-04-12T07:37:39;23.00;39.80
24260;DHT22;12384;48.112;18.418;2023-04-12T07:40:07;23.10;39.80
24260;DHT22;12384;48.112;18.418;2023-04-12T07:42:36;23.30;39.30
24260;DHT22;12384;48.112;18.418;2023-04-12T07:45:05;23.50;39.20
24260;DHT22;12384;48.112;18.418;2023-04-12T07:47:33;23.70;38.90
24260;DHT22;12384;48.112;18.418;2023-04-12T07:50:04;23.90;38.50
24260;DHT22;12384;48.112;18.418;2023-04-12T07:52:33;24.10;38.00
24260;DHT22;12384;48.112;18.418;2023-04-12T07:55:02;24.30;37.70
24260;DHT22;12384;48.112;18.418;2023-04-12T07:57:30;24.40;37.50
24260;DHT22;12384;48.112;18.418;2023-04-12T08:00:00;24.60;37.20
24260;DHT22;12384;48.112;18.418;2023-04-12T08:02:39;24.70;36.00
24260;DHT22;12384;48.112;18.418;2023-04-12T08:05:09;24.70;35.70
24260;DHT22;12384;48.112;18.418;2023-04-12T08:07:37;24.80;35.90
24260;DHT22;12384;48.112;18.418;2023-04-12T08:10:07;24.90;36.10
24260;DHT22;12384;48.112;18.418;2023-04-12T08:12:35;25.00;35.60
24260;DHT22;12384;48.112;18.418;2023-04-12T08:15:04;25.10;35.90
24260;DHT22;12384;48.112;18.418;2023-04-12T08:17:33;25.30;35.60
24260;DHT22;12384;48.112;18.418;2023-04-12T08:20:01;25.40;34.90
24260;DHT22;12384;48.112;18.418;2023-04-12T08:22:31;25.60;34.60
24260;DHT22;12384;48.112;18.418;2023-04-12T08:25:00;25.60;33.80
24260;DHT22;12384;48.112;18.418;2023-04-12T08:27:28;25.70;33.50
24260;DHT22;12384;48.112;18.418;2023-04-12T08:29:57;25.70;33.60
24260;DHT22;12384;48.112;18.418;2023-04-12T08:32:25;25.70;33.40
24260;DHT22;12384;48.112;18.418;2023-04-12T08:34:54;25.80;33.30
24260;DHT22;12384;48.112;18.418;2023-04-12T08:37:22;25.80;32.90
24260;DHT22;12384;48.112;18.418;2023-04-12T08:39:52;25.90;32.40
24260;DHT22;12384;48.112;18.418;2023-04-12T08:42:21;25.90;32.50
24260;DHT22;12384;48.112;18.418;2023-04-12T08:44:50;25.90;32.80
24260;DHT22;12384;48.112;18.418;2023-04-12T08:47:20;26.00;32.70
24260;DHT22;12384;48.112;18.418;2023-04-12T08:49:49;26.20;32.70
24260;DHT22;12384;48.112;18.418;2023-04-12T08:52:18;26.30;32.50
24260;DHT22;12384;48.112;18.418;2023-04-12T08:54:46;26.40;32.30
24260;DHT22;12384;48.112;18.418;2023-04-12T08:57:17;26.50;32.00
24260;DHT22;12384;48.112;18.418;2023-04-12T08:59:47;26.60;31.50
24260;DHT22;12384;48.112;18.418;2023-04-12T09:02:17;26.60;31.70
24260;DHT22;12384;48.112;18.418;2023-04-12T09:04:49;26.70;31.80
24260;DHT22;12384;48.112;18.418;2023-04-12T09:07:19;26.80;31.40
24260;DHT22;12384;48.112;18.418;2023-04-12T09:09:49;26.80;31.30
24260;DHT22;12384;48.112;18.418;2023-04-12T09:12:19;26.90;31.20
24260;DHT22;12384;48.112;18.418;2023-04-12T09:15:05;26.90;30.90
24260;DHT22;12384;48.112;18.418;2023-04-12T09:17:36;27.00;30.50
24260;DHT22;12384;48.112;18.418;2023-04-12T09:20:21;27.00;30.80
24260;DHT22;12384;48.112;18.418;2023-04-12T09:22:52;27.20;30.50
24260;DHT22;12384;48.112;18.418;2023-04-12T09:25:39;27.30;30.10
24260;DHT22;12384;48.112;18.418;2023-04-12T09:28:20;27.40;29.90
24260;DHT22;12384;48.112;18.418;2023-04-12T09:30:50;27.20;29.30
24260;DHT22;12384;48.112;18.418;2023-04-12T09:33:20;27.20;29.50
24260;DHT22;12384;48.112;18.418;2023-04-12T09:35:49;27.20;29.80
24260;DHT22;12384;48.112;18.418;2023-04-12T09:38:18;27.20;29.50
24260;DHT22;12384;48.112;18.418;2023-04-12T09:40:46;27.20;29.30
24260;DHT22;12384;48.112;18.418;2023-04-12T09:43:16;27.10;29.50
24260;DHT22;12384;48.112;18.418;2023-04-12T09:45:46;27.10;29.30
24260;DHT22;12384;48.112;18.418;2023-04-12T09:48:18;27.20;29.40
24260;DHT22;12384;48.112;18.418;2023-04-12T09:50:57;27.20;29.00
24260;DHT22;12384;48.112;18.418;2023-04-12T09:53:26;27.30;28.40
24260;DHT22;12384;48.112;18.418;2023-04-12T09:55:55;27.20;28.60
24260;DHT22;12384;48.112;18.418;2023-04-12T09:58:24;27.10;28.30
24260;DHT22;12384;48.112;18.418;2023-04-12T10:01:00;27.10;28.50
24260;DHT22;12384;48.112;18.418;2023-04-12T10:03:29;27.20;28.90
24260;DHT22;12384;48.112;18.418;2023-04-12T10:05:58;27.30;28.90
24260;DHT22;12384;48.112;18.418;2023-04-12T10:08:27;27.40;28.80
24260;DHT22;12384;48.112;18.418;2023-04-12T10:10:55;27.40;28.70
24260;DHT22;12384;48.112;18.418;2023-04-12T10:13:25;27.40;28.30
24260;DHT22;12384;48.112;18.418;2023-04-12T10:15:55;27.40;28.10
24260;DHT22;12384;48.112;18.418;2023-04-12T10:18:25;27.50;28.20
24260;DHT22;12384;48.112;18.418;2023-04-12T10:20:54;27.40;28.10
24260;DHT22;12384;48.112;18.418;2023-04-12T10:23:23;27.50;28.10
24260;DHT22;12384;48.112;18.418;2023-04-12T10:25:54;27.50;28.20
24260;DHT22;12384;48.112;18.418;2023-04-12T10:28:24;27.50;27.90
24260;DHT22;12384;48.112;18.418;2023-04-12T10:30:56;27.50;28.00
24260;DHT22;12384;48.112;18.418;2023-04-12T10:33:28;27.40;28.00
24260;DHT22;12384;48.112;18.418;2023-04-12T10:36:03;27.40;27.90
24260;DHT22;12384;48.112;18.418;2023-04-12T10:38:45;27.40;28.10
24260;DHT22;12384;48.112;18.418;2023-04-12T10:41:17;27.50;28.00
24260;DHT22;12384;48.112;18.418;2023-04-12T10:43:47;27.50;27.70
24260;DHT22;12384;48.112;18.418;2023-04-12T10:46:49;27.40;27.50
24260;DHT22;12384;48.112;18.418;2023-04-12T10:49:19;27.30;27.30
24260;DHT22;12384;48.112;18.418;2023-04-12T10:52:12;27.10;27.00
24260;DHT22;12384;48.112;18.418;2023-04-12T10:54:42;27.10;27.30
24260;DHT22;12384;48.112;18.418;2023-04-12T10:57:43;27.00;27.00
24260;DHT22;12384;48.112;18.418;2023-04-12T11:00:13;27.10;27.80
24260;DHT22;12384;48.112;18.418;2023-04-12T11:03:04;27.10;27.40
24260;DHT22;12384;48.112;18.418;2023-04-12T11:05:59;27.10;26.90
24260;DHT22;12384;48.112;18.418;2023-04-12T11:09:04;27.00;27.00
24260;DHT22;12384;48.112;18.418;2023-04-12T11:11:41;26.90;27.10
24260;DHT22;12384;48.112;18.418;2023-04-12T11:14:09;26.90;26.90
24260;DHT22;12384;48.112;18.418;2023-04-12T11:19:41;26.90;26.60
24260;DHT22;12384;48.112;18.418;2023-04-12T11:22:13;26.90;26.40
24260;DHT22;12384;48.112;18.418;2023-04-12T11:24:43;26.80;26.10
24260;DHT22;12384;48.112;18.418;2023-04-12T11:27:12;26.60;25.70
24260;DHT22;12384;48.112;18.418;2023-04-12T11:29:43;26.50;26.20
24260;DHT22;12384;48.112;18.418;2023-04-12T11:32:13;26.30;25.50
24260;DHT22;12384;48.112;18.418;2023-04-12T11:34:44;26.10;26.30
24260;DHT22;12384;48.112;18.418;2023-04-12T11:37:16;25.90;26.70
24260;DHT22;12384;48.112;18.418;2023-04-12T11:39:46;25.80;26.80
24260;DHT22;12384;48.112;18.418;2023-04-12T11:42:17;25.70;27.00
24260;DHT22;12384;48.112;18.418;2023-04-12T11:44:46;25.70;27.10
24260;DHT22;12384;48.112;18.418;2023-04-12T11:47:25;25.60;26.90
24260;DHT22;12384;48.112;18.418;2023-04-12T11:49:56;25.60;26.60
24260;DHT22;12384;48.112;18.418;2023-04-12T11:52:30;25.60;27.40
24260;DHT22;12384;48.112;18.418;2023-04-12T11:55:00;25.70;27.50
24260;DHT22;12384;48.112;18.418;2023-04-12T11:57:33;25.70;27.10
24260;DHT22;12384;48.112;18.418;2023-04-12T12:00:03;26.00;27.60
24260;DHT22;12384;48.112;18.418;2023-04-12T12:02:39;26.20;27.50
24260;DHT22;12384;48.112;18.418;2023-04-12T12:05:27;26.40;27.60
24260;DHT22;12384;48.112;18.418;2023-04-12T12:07:58;26.70;26.80
24260;DHT22;12384;48.112;18.418;2023-04-12T12:10:32;26.90;26.90
24260;DHT22;12384;48.112;18.418;2023-04-12T12:13:20;27.10;26.80
24260;DHT22;12384;48.112;18.418;2023-04-12T12:15:51;27.30;26.50
24260;DHT22;12384;48.112;18.418;2023-04-12T12:18:24;27.50;26.50
24260;DHT22;12384;48.112;18.418;2023-04-12T12:20:55;27.70;26.20
24260;DHT22;12384;48.112;18.418;2023-04-12T12:23:29;27.90;26.20
24260;DHT22;12384;48.112;18.418;2023-04-12T12:25:57;28.10;25.80
24260;DHT22;12384;48.112;18.418;2023-04-12T12:28:49;28.20;25.70
24260;DHT22;12384;48.112;18.418;2023-04-12T12:31:19;28.50;25.20
24260;DHT22;12384;48.112;18.418;2023-04-12T12:33:52;28.70;25.10
24260;DHT22;12384;48.112;18.418;2023-04-12T12:36:28;28.80;24.70
24260;DHT22;12384;48.112;18.418;2023-04-12T12:39:05;28.90;24.40
24260;DHT22;12384;48.112;18.418;2023-04-12T12:41:36;29.10;24.40
24260;DHT22;12384;48.112;18.418;2023-04-12T12:44:05;29.20;24.40
24260;DHT22;12384;48.112;18.418;2023-04-12T12:46:34;29.40;24.60
24260;DHT22;12384;48.112;18.418;2023-04-12T12:49:05;29.50;24.10
24260;DHT22;12384;48.112;18.418;2023-04-12T12:51:34;29.70;24.00
24260;DHT22;12384;48.112;18.418;2023-04-12T12:54:04;29.90;23.80
24260;DHT22;12384;48.112;18.418;2023-04-12T12:56:32;30.10;23.40
24260;DHT22;12384;48.112;18.418;2023-04-12T12:59:01;30.20;23.20
24260;DHT22;12384;48.112;18.418;2023-04-12T13:01:30;30.20;23.10
24260;DHT22;12384;48.112;18.418;2023-04-12T13:03:59;30.30;23.00
24260;DHT22;12384;48.112;18.418;2023-04-12T13:06:27;30.40;22.70
24260;DHT22;12384;48.112;18.418;2023-04-12T13:08:56;30.30;22.30
24260;DHT22;12384;48.112;18.418;2023-04-12T13:11:26;30.30;22.30
24260;DHT22;12384;48.112;18.418;2023-04-12T13:13:55;30.30;22.20
24260;DHT22;12384;48.112;18.418;2023-04-12T13:16:23;30.30;22.00
24260;DHT22;12384;48.112;18.418;2023-04-12T13:18:53;30.30;22.00
24260;DHT22;12384;48.112;18.418;2023-04-12T13:21:22;30.30;22.10
24260;DHT22;12384;48.112;18.418;2023-04-12T13:23:51;30.40;21.90
24260;DHT22;12384;48.112;18.418;2023-04-12T13:26:19;30.40;22.00
24260;DHT22;12384;48.112;18.418;2023-04-12T13:28:49;30.40;22.10
24260;DHT22;12384;48.112;18.418;2023-04-12T13:31:18;30.60;22.30
24260;DHT22;12384;48.112;18.418;2023-04-12T13:33:46;30.70;22.10
24260;DHT22;12384;48.112;18.418;2023-04-12T13:36:15;31.00;21.80
24260;DHT22;12384;48.112;18.418;2023-04-12T13:38:43;31.30;21.80
24260;DHT22;12384;48.112;18.418;2023-04-12T13:41:12;31.60;21.10
24260;DHT22;12384;48.112;18.418;2023-04-12T13:43:40;31.80;20.80
24260;DHT22;12384;48.112;18.418;2023-04-12T13:46:10;32.00;20.60
24260;DHT22;12384;48.112;18.418;2023-04-12T13:48:39;32.10;20.60
24260;DHT22;12384;48.112;18.418;2023-04-12T13:51:08;32.10;20.20
24260;DHT22;12384;48.112;18.418;2023-04-12T13:53:36;32.10;20.10
24260;DHT22;12384;48.112;18.418;2023-04-12T13:56:05;32.10;20.20
24260;DHT22;12384;48.112;18.418;2023-04-12T13:58:34;31.90;19.20
24260;DHT22;12384;48.112;18.418;2023-04-12T14:01:06;31.70;19.10
24260;DHT22;12384;48.112;18.418;2023-04-12T14:03:36;31.50;19.20
24260;DHT22;12384;48.112;18.418;2023-04-12T14:06:05;31.40;19.40
24260;DHT22;12384;48.112;18.418;2023-04-12T14:08:34;31.30;19.60
24260;DHT22;12384;48.112;18.418;2023-04-12T14:11:03;31.30;19.60
24260;DHT22;12384;48.112;18.418;2023-04-12T14:13:32;31.20;19.20
24260;DHT22;12384;48.112;18.418;2023-04-12T14:16:00;31.00;19.00
24260;DHT22;12384;48.112;18.418;2023-04-12T14:18:29;30.80;18.80
24260;DHT22;12384;48.112;18.418;2023-04-12T14:20:59;30.60;18.90
24260;DHT22;12384;48.112;18.418;2023-04-12T14:23:29;30.40;18.90
24260;DHT22;12384;48.112;18.418;2023-04-12T14:25:58;30.00;18.30
24260;DHT22;12384;48.112;18.418;2023-04-12T14:28:26;29.50;17.90
24260;DHT22;12384;48.112;18.418;2023-04-12T14:30:57;28.90;18.30
24260;DHT22;12384;48.112;18.418;2023-04-12T14:33:30;28.30;18.30
24260;DHT22;12384;48.112;18.418;2023-04-12T14:36:00;27.60;18.40
24260;DHT22;12384;48.112;18.418;2023-04-12T14:38:31;26.90;18.40
24260;DHT22;12384;48.112;18.418;2023-04-12T14:40:59;26.20;18.50
24260;DHT22;12384;48.112;18.418;2023-04-12T14:43:28;25.50;19.00
24260;DHT22;12384;48.112;18.418;2023-04-12T14:45:57;24.80;19.30
24260;DHT22;12384;48.112;18.418;2023-04-12T14:48:25;24.00;19.30
24260;DHT22;12384;48.112;18.418;2023-04-12T14:50:54;23.50;19.80
24260;DHT22;12384;48.112;18.418;2023-04-12T14:53:23;22.90;20.40
24260;DHT22;12384;48.112;18.418;2023-04-12T14:55:52;22.30;20.80
24260;DHT22;12384;48.112;18.418;2023-04-12T14:58:20;21.70;21.10
24260;DHT22;12384;48.112;18.418;2023-04-12T15:00:48;21.30;21.40
24260;DHT22;12384;48.112;18.418;2023-04-12T15:03:17;20.80;21.80
24260;DHT22;12384;48.112;18.418;2023-04-12T15:05:47;20.40;22.20
24260;DHT22;12384;48.112;18.418;2023-04-12T15:08:15;20.00;22.50
24260;DHT22;12384;48.112;18.418;2023-04-12T15:10:45;19.60;22.70
24260;DHT22;12384;48.112;18.418;2023-04-12T15:13:14;19.30;22.90
24260;DHT22;12384;48.112;18.418;2023-04-12T15:15:42;19.00;23.10
24260;DHT22;12384;48.112;18.418;2023-04-12T15:18:13;18.70;23.00
24260;DHT22;12384;48.112;18.418;2023-04-12T15:20:42;18.40;23.20
24260;DHT22;12384;48.112;18.418;2023-04-12T15:23:11;18.20;23.20
24260;DHT22;12384;48.112;18.418;2023-04-12T15:25:39;18.00;23.40
24260;DHT22;12384;48.112;18.418;2023-04-12T15:28:09;17.70;23.50
24260;DHT22;12384;48.112;18.418;2023-04-12T15:30:38;17.60;23.50
24260;DHT22;12384;48.112;18.418;2023-04-12T15:33:06;17.40;23.80
24260;DHT22;12384;48.112;18.418;2023-04-12T15:35:34;17.20;24.10
24260;DHT22;12384;48.112;18.418;2023-04-12T15:38:03;17.10;24.30
24260;DHT22;12384;48.112;18.418;2023-04-12T15:40:31;17.00;24.50
24260;DHT22;12384;48.112;18.418;2023-04-12T15:43:00;16.80;24.60
24260;DHT22;12384;48.112;18.418;2023-04-12T15:45:29;16.70;24.60
24260;DHT22;12384;48.112;18.418;2023-04-12T15:47:58;16.50;24.70
24260;DHT22;12384;48.112;18.418;2023-04-12T15:50:27;16.40;24.80